Flight EZE556P

  • Submitted By: Dave Hardy
  • Departure Airport: Humberside International (EGNJ)
  • Arrival Airport: Manchester (EGCC)
  • Aircraft: JS41 (G-MAJA)
  • Flight Time: 00.51
  • Date Submitted: 04/17/2009
  • Status: Accepted
Flight Details
Gross Revenue:
(20 load / £ 0.00 per unit
£ 0.00
Fuel Cost:
(1018 fuel used @ 0 / unit)
£ 0.00

Flight Details

  • VATAWARE Link: -

Additional Log Information:

View Log

[2009/04/18 10:54:00]
Flight IATA:EZE556P
Pilot Number:EZE0001
Company ICAO:EZE
Aircraft Type:JS41
PAX:20
Aircraft Registration:JS41
Departing Airport: EGNJ
Destination Airport: EGCC
Online: VATSIM
Route:EGNJ..GOLES..EGCC
Flight Level:12000
10:54 Zero fuel Weight: 17982 Lbs, Fuel Weight: 5800 Lbs
10:54 VATSIM:EGNJ 172020Z 02008KT 9999 FEW010 07/06 Q1016
10:54 VATSIM:EGCC 172020Z 02012KT 9999 FEW023 09/05 Q1016
10:54 Parking Brakes off
10:54 Com1 Freq=122.80
11:00 VR= 135 Knots
11:00 V2= 138 Knots
11:00 Take-off
11:00 Take off Weight: 23714 Lbs
11:00 Wind: 035 @ 013 Knots Heading: 022
11:00 POS N53 34 45 W000 20 51
11:00 N11 36 N12 35
11:00 Gear Up: 138 Knots
11:00 Flaps: at 138 Knots
11:04 Flaps: at 122 Knots
11:08 TOC
11:08 Fuel Weight: 5456 Lb
11:15 Wind:080@015 Knots Heading: 260 Ground Speed: 282 Knots Altitude 11991 ft
11:20 TOD
11:20 Fuel Weight: 5104 Lb
11:21 Com1 Freq=120.80
11:21 Com1 Freq=118.80
11:21 Com1 Freq=118.72
11:21 Com1 Freq=118.65
11:21 Com1 Freq=118.62
11:29 Flaps: at 227 Knots
11:30 Wind:046@010 Knots Heading: 223 Ground Speed: 209 Knots Altitude 1794 ft
11:32 Gear Down: 156 Knots
11:32 Flaps: at 156 Knots
11:34 Flaps: at 147 Knots
11:36 TouchDown:Rate -319 ft/min Speed: 135 Knots
11:36 VATSIM:EGCC 172050Z 02013KT 9999 FEW023 08/05 Q1016 NOSIG
11:36 Land
11:36 Wind:046@010 Knots
11:36 Heading: 049
11:36 Flight Duration: 00:36
11:36 Landing Weight: 22805 Lbs
11:36 POS N53 20 21 W002 17 44
11:42 Com1 Freq=120.62
11:42 Com1 Freq=121.62
11:42 Com1 Freq=121.72
11:42 Com1 Freq=121.80
11:42 Com1 Freq=121.85
11:45 Parking brakes on
11:45 Block to Block Duration: 00:51
11:45 Final Fuel: 4781 Lbls
11:45 Spent Fuel: 1018 Lbls
11:45 Flight Length: 135 NM
11:45 TOD Land Length: 56 NM

Route Map